createdAt,value
2023-01-23T00:02:11.914Z,21.9
2023-01-23T00:04:59.300Z,20.5
2023-01-23T00:07:46.552Z,22.4
2023-01-23T00:10:34.264Z,22.9
2023-01-23T00:13:23.147Z,19.2
2023-01-23T00:16:11.082Z,22.9
2023-01-23T00:19:02.002Z,24.1
2023-01-23T00:21:50.044Z,21.6
2023-01-23T00:24:37.317Z,22.4
2023-01-23T00:27:29.953Z,23.2
2023-01-23T00:30:19.438Z,21.4
2023-01-23T00:33:07.895Z,21.2
2023-01-23T00:36:00.464Z,22
2023-01-23T00:38:47.968Z,19.7
2023-01-23T00:41:35.381Z,22.7
2023-01-23T00:44:22.855Z,20
2023-01-23T00:47:10.251Z,22.9
2023-01-23T00:50:02.984Z,22.7
2023-01-23T00:52:56.827Z,19.6
2023-01-23T00:55:44.279Z,16.4
2023-01-23T00:58:31.754Z,23.3
2023-01-23T01:01:19.409Z,24.6
2023-01-23T01:04:07.996Z,21.4
2023-01-23T01:06:55.404Z,25.1
2023-01-23T01:09:47.784Z,19.2
2023-01-23T01:12:35.235Z,20.6
2023-01-23T01:15:22.789Z,21.8
2023-01-23T01:18:10.722Z,24.4
2023-01-23T01:20:58.040Z,25.7
2023-01-23T01:23:45.417Z,21.8
2023-01-23T01:26:32.758Z,21.3
2023-01-23T01:29:20.537Z,20.5
2023-01-23T01:32:08.483Z,21.7
2023-01-23T01:34:55.794Z,24.9
2023-01-23T01:37:43.105Z,17
2023-01-23T01:40:30.549Z,19.8
2023-01-23T01:43:19.926Z,20.1
2023-01-23T01:46:09.901Z,21.5
2023-01-23T01:49:04.658Z,22.2
2023-01-23T01:51:55.875Z,19.3
2023-01-23T01:54:46.508Z,19.9
2023-01-23T01:57:37.902Z,19.1
2023-01-23T02:00:29.245Z,18.4
2023-01-23T02:03:16.997Z,20.2
2023-01-23T02:06:04.905Z,16.9
2023-01-23T02:08:52.855Z,15.7
2023-01-23T02:11:46.894Z,23
2023-01-23T02:14:34.929Z,22.6
2023-01-23T02:17:22.454Z,19.6
2023-01-23T02:20:09.876Z,23.8
2023-01-23T02:23:04.410Z,21.6
2023-01-23T02:25:57.591Z,19
2023-01-23T02:28:46.756Z,22.8
2023-01-23T02:31:36.964Z,18.8
2023-01-23T02:34:27.484Z,17.7
2023-01-23T02:37:14.844Z,23.2
2023-01-23T02:40:03.159Z,17.7
2023-01-23T02:42:52.652Z,19.1
2023-01-23T02:45:40.207Z,20.4
2023-01-23T02:48:27.530Z,22
2023-01-23T02:51:15.246Z,18.6
2023-01-23T02:54:02.791Z,18.8
2023-01-23T02:56:50.499Z,19
2023-01-23T02:59:37.858Z,21.2
2023-01-23T03:02:56.995Z,21.6
2023-01-23T03:05:44.269Z,20.4
2023-01-23T03:08:32.513Z,18.2
2023-01-23T03:11:21.500Z,18.1
2023-01-23T03:14:10.216Z,18.6
2023-01-23T03:16:59.725Z,19.4
2023-01-23T03:19:47.303Z,17.5
2023-01-23T03:22:34.836Z,17.4
2023-01-23T03:25:22.163Z,18.8
2023-01-23T03:28:09.546Z,18.7
2023-01-23T03:32:57.894Z,14.9
2023-01-23T03:35:45.220Z,18.7
2023-01-23T03:38:32.481Z,18.5
2023-01-23T03:41:19.900Z,20.7
2023-01-23T03:44:11.177Z,16.7
2023-01-23T03:46:58.613Z,18.9
2023-01-23T03:49:46.054Z,18.4
2023-01-23T03:52:33.372Z,22.1
2023-01-23T03:55:22.496Z,21.2
2023-01-23T03:58:09.794Z,18.3
2023-01-23T04:00:57.220Z,15.5
2023-01-23T04:03:47.914Z,22
2023-01-23T04:06:36.000Z,17.3
2023-01-23T04:09:23.728Z,18.4
2023-01-23T04:12:12.630Z,17.8
2023-01-23T04:15:00.062Z,15.9
2023-01-23T04:17:47.533Z,18.3
2023-01-23T04:20:34.922Z,17.6
2023-01-23T04:23:22.261Z,19.5
2023-01-23T04:26:10.029Z,16.4
2023-01-23T04:28:57.806Z,19
2023-01-23T04:31:45.213Z,15.7
2023-01-23T04:34:32.578Z,17.8
2023-01-23T04:37:20.096Z,17.2
2023-01-23T04:40:08.756Z,20.2
2023-01-23T04:42:57.224Z,20
2023-01-23T04:45:44.619Z,17.7
2023-01-23T04:48:34.470Z,18.2
2023-01-23T04:51:22.038Z,22.3
2023-01-23T04:54:09.448Z,20.3
2023-01-23T04:56:56.889Z,19.1
2023-01-23T04:59:44.430Z,19.3
2023-01-23T05:02:32.269Z,18
2023-01-23T05:05:19.991Z,19
2023-01-23T05:08:08.747Z,19.4
2023-01-23T05:10:56.975Z,22
2023-01-23T05:13:44.356Z,16.6
2023-01-23T05:16:31.766Z,18.3
2023-01-23T05:19:19.117Z,17.8
2023-01-23T05:22:07.184Z,19.8
2023-01-23T05:24:54.671Z,21.4
2023-01-23T05:27:41.992Z,20.6
2023-01-23T05:30:29.375Z,22.3
2023-01-23T05:33:16.774Z,21.1
2023-01-23T05:36:04.370Z,19.1
2023-01-23T05:38:52.699Z,22.5
2023-01-23T05:41:40.551Z,21.1
2023-01-23T05:44:27.941Z,20.7
2023-01-23T05:47:15.370Z,18.9
2023-01-23T05:50:03.265Z,20.2
2023-01-23T05:52:52.886Z,20.1
2023-01-23T05:55:40.165Z,20
2023-01-23T05:58:28.144Z,19.9
2023-01-23T06:01:15.479Z,19.7
2023-01-23T06:04:03.076Z,18.9
2023-01-23T06:06:50.537Z,19.8
2023-01-23T06:09:37.921Z,19
2023-01-23T06:12:25.720Z,25
2023-01-23T06:15:13.071Z,18.6
2023-01-23T06:18:00.609Z,25.3
2023-01-23T06:20:48.215Z,27.3
2023-01-23T06:23:35.748Z,19
2023-01-23T06:26:23.026Z,20
2023-01-23T06:29:10.325Z,22.1
2023-01-23T06:31:58.067Z,19.9
2023-01-23T06:34:45.444Z,22.4
2023-01-23T06:37:32.739Z,20.7
2023-01-23T06:40:20.713Z,25.4
2023-01-23T06:43:09.056Z,22.8
2023-01-23T06:45:56.407Z,21.9
2023-01-23T06:48:43.726Z,21.2
2023-01-23T06:51:31.092Z,23.2
2023-01-23T06:54:18.966Z,25.8
2023-01-23T06:57:06.870Z,24.7
2023-01-23T06:59:54.676Z,22.9
2023-01-23T07:02:44.060Z,23.9
2023-01-23T07:05:33.539Z,23.6
2023-01-23T07:08:24.009Z,21.9
2023-01-23T07:11:13.282Z,27.6
2023-01-23T07:14:01.590Z,23.6
2023-01-23T07:16:49.100Z,26.5
2023-01-23T07:19:36.592Z,25.6
2023-01-23T07:22:23.919Z,23.8
2023-01-23T07:25:11.877Z,23.4
2023-01-23T07:27:59.296Z,22.3
2023-01-23T07:30:46.593Z,26.4
2023-01-23T07:33:35.663Z,25.3
2023-01-23T07:36:23.004Z,26
2023-01-23T07:39:10.548Z,19.4
2023-01-23T07:41:57.868Z,24.8
2023-01-23T07:44:45.707Z,22.3
2023-01-23T07:47:33.053Z,26.1
2023-01-23T07:50:21.243Z,28.2
2023-01-23T07:53:08.981Z,23.9
2023-01-23T07:55:56.356Z,21.2
2023-01-23T07:58:43.817Z,24.4
2023-01-23T08:01:35.038Z,22.5
2023-01-23T08:04:22.299Z,25.3
2023-01-23T08:07:09.841Z,25.6
2023-01-23T08:09:57.138Z,21.6
2023-01-23T08:12:44.480Z,22.3
2023-01-23T08:15:32.274Z,24
2023-01-23T08:18:19.718Z,26.6
2023-01-23T08:21:08.066Z,25.6
2023-01-23T08:23:56.011Z,24.4
2023-01-23T08:26:45.730Z,30.2
2023-01-23T08:29:33.322Z,20.8
2023-01-23T08:32:20.947Z,25.1
2023-01-23T08:35:08.984Z,26.8
2023-01-23T08:37:56.454Z,25
2023-01-23T08:40:43.968Z,23.3
2023-01-23T08:43:32.257Z,28.1
2023-01-23T08:46:19.611Z,27.1
2023-01-23T08:49:09.928Z,28.8
2023-01-23T08:51:58.908Z,26.5
2023-01-23T08:54:46.371Z,25.5
2023-01-23T08:57:33.953Z,29.5
2023-01-23T09:00:22.100Z,26.2
2023-01-23T09:03:15.262Z,33.4
2023-01-23T09:06:13.297Z,23.5
2023-01-23T09:09:03.019Z,29.6
2023-01-23T09:11:50.358Z,24.9
2023-01-23T09:14:38.775Z,29.9
2023-01-23T09:17:27.041Z,29.4
2023-01-23T09:20:14.433Z,28
2023-01-23T09:23:02.423Z,27.9
2023-01-23T09:25:50.019Z,30
2023-01-23T09:28:37.503Z,29.7
2023-01-23T09:31:27.160Z,27.5
2023-01-23T09:34:17.176Z,27.5
2023-01-23T09:37:04.774Z,29.3
2023-01-23T09:39:52.104Z,29.9
2023-01-23T09:42:39.378Z,26.7
2023-01-23T09:45:26.797Z,29.5
2023-01-23T09:48:16.517Z,28.5
2023-01-23T09:51:11.551Z,25.6
2023-01-23T09:54:10.255Z,23.8
2023-01-23T09:57:10.792Z,29.4
2023-01-23T10:00:01.634Z,29
2023-01-23T10:02:58.709Z,28.4
2023-01-23T10:05:48.280Z,26.8
2023-01-23T10:08:53.161Z,29.5
2023-01-23T10:11:56.927Z,34.2
2023-01-23T10:14:51.201Z,29.6
2023-01-23T10:17:58.381Z,24.3
2023-01-23T10:20:58.178Z,27.4
2023-01-23T10:23:56.844Z,25.6
2023-01-23T10:26:56.254Z,32.2
2023-01-23T10:29:48.740Z,29.3
2023-01-23T10:32:42.668Z,29.3
2023-01-23T10:35:35.766Z,29.9
2023-01-23T10:38:32.118Z,32.3
2023-01-23T10:41:27.076Z,66.6
2023-01-23T10:44:14.496Z,34.4
2023-01-23T10:47:04.147Z,34.8
2023-01-23T10:50:03.117Z,36.6
2023-01-23T10:52:52.274Z,38.4
2023-01-23T10:55:51.197Z,32
2023-01-23T10:58:42.741Z,34
2023-01-23T11:01:30.331Z,30.6
2023-01-23T11:04:21.028Z,32.4
2023-01-23T11:07:14.197Z,33.1
2023-01-23T11:10:05.291Z,33.4
2023-01-23T11:13:05.485Z,31.5
2023-01-23T11:16:11.070Z,32.4
2023-01-23T11:19:01.241Z,30.1
2023-01-23T11:21:57.307Z,33.8
2023-01-23T11:24:46.957Z,32.1
2023-01-23T11:27:34.260Z,41.9
2023-01-23T11:30:21.893Z,36.3
2023-01-23T11:33:24.367Z,33.8
2023-01-23T11:36:24.324Z,32
2023-01-23T11:39:23.060Z,39.5
2023-01-23T11:42:28.329Z,37.6
2023-01-23T11:45:15.872Z,35.1
2023-01-23T11:48:18.153Z,60.8
2023-01-23T11:51:38.149Z,35.2
2023-01-23T11:54:38.772Z,43.7
2023-01-23T11:57:43.269Z,34.2
2023-01-23T12:00:45.093Z,36
2023-01-23T12:03:46.115Z,40.8
2023-01-23T12:06:50.975Z,43.4
2023-01-23T12:09:50.897Z,40.1
2023-01-23T12:12:51.431Z,36.2
2023-01-23T12:15:57.309Z,38.3
2023-01-23T12:18:56.460Z,35.5
2023-01-23T12:21:59.652Z,37.4
2023-01-23T12:24:56.149Z,33.7
2023-01-23T12:27:56.608Z,35.1
2023-01-23T12:30:55.304Z,35
2023-01-23T12:33:54.501Z,36.1
2023-01-23T12:37:11.828Z,35.2
2023-01-23T12:40:15.161Z,36.6
2023-01-23T12:43:10.245Z,38.6
2023-01-23T12:46:03.548Z,36.4
2023-01-23T12:48:56.590Z,38.5
2023-01-23T12:51:55.992Z,34.9
2023-01-23T12:54:48.476Z,36.2
2023-01-23T12:57:59.593Z,29.5
2023-01-23T13:00:49.909Z,33.5
2023-01-23T13:03:49.982Z,36.6
2023-01-23T13:06:48.010Z,36.7
2023-01-23T13:09:54.059Z,40.9
2023-01-23T13:13:01.721Z,34.5
2023-01-23T13:15:49.064Z,36
2023-01-23T13:18:54.003Z,37
2023-01-23T13:22:22.457Z,37.7
2023-01-23T13:25:18.374Z,36.2
2023-01-23T13:28:05.785Z,44.5
2023-01-23T13:31:15.281Z,44.5
2023-01-23T13:34:15.872Z,40.7
2023-01-23T13:37:22.316Z,37.6
2023-01-23T13:40:35.743Z,44
2023-01-23T13:43:23.046Z,40.1
2023-01-23T13:46:28.839Z,34.8
2023-01-23T14:28:04.477Z,45.2
2023-01-23T14:30:51.875Z,43.5
2023-01-23T14:33:42.267Z,52.2
2023-01-23T14:36:30.238Z,49.8
2023-01-23T14:39:21.319Z,50.8
2023-01-23T14:42:22.881Z,47.2
2023-01-23T14:45:13.986Z,48.3
2023-01-23T14:48:06.911Z,51.7
2023-01-23T14:51:00.646Z,50.9
2023-01-23T14:53:54.328Z,48.9
2023-01-23T14:56:43.640Z,52.7
2023-01-23T14:59:32.119Z,49.6
2023-01-23T15:02:23.401Z,44.2
2023-01-23T15:05:17.149Z,51.4
2023-01-23T15:08:07.732Z,42
2023-01-23T15:11:06.264Z,48
2023-01-23T15:13:57.611Z,52.9
2023-01-23T15:16:47.290Z,52.6
2023-01-23T15:19:36.735Z,53.2
2023-01-23T15:22:25.502Z,55.9
2023-01-23T15:25:14.859Z,47
2023-01-23T15:28:12.562Z,65.5
2023-01-23T15:31:16.870Z,55.9
2023-01-23T15:34:14.712Z,52.9
2023-01-23T15:37:09.260Z,52.7
2023-01-23T15:40:08.001Z,55.8
2023-01-23T15:43:02.598Z,49.5
2023-01-23T15:45:52.989Z,53.3
2023-01-23T15:48:40.479Z,47.6
2023-01-23T15:51:27.673Z,48.2
2023-01-23T15:54:14.988Z,52.3
2023-01-23T15:57:09.498Z,48.2
2023-01-23T15:59:58.163Z,54.2
2023-01-23T16:02:55.825Z,42.7
2023-01-23T16:05:44.899Z,54.3
2023-01-23T16:08:32.383Z,51.5
2023-01-23T16:11:19.720Z,50.5
2023-01-23T16:14:08.000Z,52.5
2023-01-23T16:17:15.273Z,57.1
2023-01-23T16:20:03.791Z,55.7
2023-01-23T16:22:54.230Z,55.9
2023-01-23T16:25:46.403Z,57.4
2023-01-23T16:28:34.735Z,53.8
2023-01-23T16:31:22.584Z,73.1
2023-01-23T16:34:10.017Z,73.1
2023-01-23T16:36:57.254Z,61.6
2023-01-23T16:39:46.017Z,57.9
2023-01-23T16:42:33.363Z,54.4
2023-01-23T16:45:21.157Z,52.6
2023-01-23T16:48:21.534Z,53.8
2023-01-23T16:51:13.635Z,52.5
2023-01-23T16:54:18.159Z,55.9
2023-01-23T16:57:06.494Z,55.4
2023-01-23T16:59:59.658Z,59.4
2023-01-23T17:02:48.262Z,60.8
2023-01-23T17:05:38.581Z,56.4
2023-01-23T17:08:25.842Z,58.5
2023-01-23T17:11:13.294Z,58.6
2023-01-23T17:14:06.323Z,59.2
2023-01-23T17:16:59.243Z,61.9
2023-01-23T17:19:51.517Z,71.6
2023-01-23T17:22:39.717Z,72.9
2023-01-23T17:25:27.652Z,95.4
2023-01-23T17:28:15.896Z,72.8
2023-01-23T17:31:05.068Z,68.8
2023-01-23T17:33:55.899Z,78.5
2023-01-23T17:36:43.690Z,69.1
2023-01-23T17:39:31.270Z,86.6
2023-01-23T17:42:21.258Z,74.5
2023-01-23T17:45:09.454Z,72.1
2023-01-23T17:47:58.860Z,64.9
2023-01-23T17:50:46.249Z,84.8
2023-01-23T17:53:33.610Z,68.5
2023-01-23T17:56:21.307Z,74.1
2023-01-23T17:59:09.501Z,82
2023-01-23T18:01:56.828Z,80.3
2023-01-23T18:04:44.245Z,79.5
2023-01-23T18:07:31.687Z,67.8
2023-01-23T18:10:22.226Z,67.1
2023-01-23T18:13:13.669Z,67.6
2023-01-23T18:16:07.788Z,56.9
2023-01-23T18:19:00.300Z,59.5
2023-01-23T18:22:00.170Z,65
2023-01-23T18:24:48.142Z,64.4
2023-01-23T18:27:36.069Z,58.1
2023-01-23T18:30:26.539Z,57.1
2023-01-23T18:33:29.778Z,57.9
2023-01-23T18:36:54.508Z,64.4
2023-01-23T18:39:51.728Z,61.7
2023-01-23T18:42:46.952Z,61.7
2023-01-23T18:45:45.261Z,64.4
2023-01-23T18:48:33.304Z,66.1
2023-01-23T18:51:21.440Z,73.4
2023-01-23T18:54:24.403Z,69.5
2023-01-23T18:57:20.652Z,66.7
2023-01-23T19:00:22.310Z,75.5
2023-01-23T19:03:17.979Z,70.2
2023-01-23T19:06:21.159Z,68.2
2023-01-23T19:09:11.427Z,62.3
2023-01-23T19:12:07.613Z,60.7
2023-01-23T19:15:09.470Z,58
2023-01-23T19:18:08.534Z,62.1
2023-01-23T19:21:09.938Z,60.5
2023-01-23T19:24:03.082Z,58.4
2023-01-23T19:26:52.487Z,60.9
2023-01-23T19:29:45.523Z,52.2
2023-01-23T19:32:33.523Z,54.6
2023-01-23T19:35:22.301Z,54.7
2023-01-23T19:38:10.251Z,52.5
2023-01-23T19:40:59.520Z,50.8
2023-01-23T19:43:46.964Z,49.8
2023-01-23T19:46:36.482Z,50.5
2023-01-23T19:49:23.995Z,52.1
2023-01-23T19:52:11.477Z,46.8
2023-01-23T19:55:01.293Z,53.7
2023-01-23T19:57:48.986Z,50.5
2023-01-23T20:00:36.558Z,59.9
2023-01-23T20:03:24.095Z,51.9
2023-01-23T20:06:16.692Z,48.3
2023-01-23T20:09:04.234Z,49.6
2023-01-23T20:11:51.701Z,50.4
2023-01-23T20:14:39.018Z,57.6
2023-01-23T20:17:26.376Z,48.5
2023-01-23T20:20:13.800Z,48.6
2023-01-23T20:23:02.009Z,48.2
2023-01-23T20:25:49.508Z,58.7
2023-01-23T20:28:42.491Z,47.7
2023-01-23T20:31:33.656Z,49.2
2023-01-23T20:34:21.347Z,52.1
2023-01-23T20:37:09.663Z,53.3
2023-01-23T20:39:57.191Z,46
2023-01-23T20:42:44.851Z,49.8
2023-01-23T20:45:32.385Z,49.8
2023-01-23T20:48:20.061Z,46.7
2023-01-23T20:51:09.738Z,51.2
2023-01-23T20:53:59.323Z,47.3
2023-01-23T20:56:46.715Z,50.5
2023-01-23T20:59:34.108Z,48.5
2023-01-23T21:02:21.543Z,52.5
2023-01-23T21:05:10.784Z,46.3
2023-01-23T21:07:58.045Z,49.2
2023-01-23T21:10:45.546Z,46.1
2023-01-23T21:13:32.855Z,55.2
2023-01-23T21:16:21.017Z,45.8
2023-01-23T21:19:09.489Z,46
2023-01-23T21:21:57.017Z,50.8
2023-01-23T21:24:44.503Z,47
2023-01-23T21:27:31.919Z,48.2
2023-01-23T21:30:19.287Z,53
2023-01-23T21:33:06.775Z,40.3
2023-01-23T21:35:54.129Z,46.5
2023-01-23T21:38:41.927Z,47.8
2023-01-23T21:41:29.981Z,47.3
2023-01-23T21:44:17.925Z,41.6
2023-01-23T21:47:05.225Z,43.1
2023-01-23T21:49:52.661Z,44.3
2023-01-23T21:52:40.020Z,46.9
2023-01-23T21:55:27.440Z,46.8
2023-01-23T21:58:14.786Z,46.2
2023-01-23T22:01:02.150Z,43.8
2023-01-23T22:04:24.057Z,42.4
2023-01-23T22:07:11.454Z,42.2
2023-01-23T22:09:58.732Z,46
2023-01-23T22:12:46.204Z,50.5
2023-01-23T22:15:33.559Z,44.7
2023-01-23T22:18:21.072Z,49.2
2023-01-23T22:21:09.414Z,47.1
2023-01-23T22:23:57.209Z,46.7
2023-01-23T22:26:44.610Z,51.5
2023-01-23T22:29:31.938Z,49
2023-01-23T22:32:19.436Z,50.6
2023-01-23T22:35:07.497Z,48.1
2023-01-23T22:37:55.542Z,47.8
2023-01-23T22:40:43.009Z,50.8
2023-01-23T22:43:30.345Z,44.2
2023-01-23T22:46:18.761Z,43.8
2023-01-23T22:49:08.005Z,49.5
2023-01-23T22:51:55.489Z,52.2
2023-01-23T22:54:42.898Z,47.3
2023-01-23T22:57:30.374Z,44
2023-01-23T23:00:17.677Z,51.9
2023-01-23T23:03:06.020Z,47.8
2023-01-23T23:05:53.266Z,46.7
2023-01-23T23:08:42.996Z,46.8
2023-01-23T23:11:31.707Z,50.8
2023-01-23T23:14:20.607Z,43
2023-01-23T23:17:09.076Z,51.5
2023-01-23T23:19:56.465Z,45.8
2023-01-23T23:22:43.773Z,52
2023-01-23T23:25:31.215Z,41.9
2023-01-23T23:28:20.134Z,44.7
2023-01-23T23:31:09.843Z,40.7
2023-01-23T23:33:57.256Z,48.1
2023-01-23T23:36:45.216Z,45
2023-01-23T23:39:32.614Z,44.5
2023-01-23T23:42:20.442Z,44
2023-01-23T23:45:08.729Z,42.8
2023-01-23T23:47:56.597Z,39
2023-01-23T23:50:44.032Z,41.9
2023-01-23T23:53:31.497Z,39.8
2023-01-23T23:56:19.408Z,40
2023-01-23T23:59:14.070Z,40.5
